Time;durP1;ratioP1;P1;durP2;ratioP2;P2;SDS_P1;SDS_P2;PMS_P1;PMS_P2;Temp;Humidity;BMP_temperature;BMP_pressure;BME280_temperature;BME280_humidity;BME280_pressure;Samples;Min_cycle;Max_cycle;Signal;HPM_P1;HPM_P2
2023/03/04 00:01:34;;;;;;;14.03;9.57;;;1.70;99.90;;;;;;10325341;28;20228;-66
2023/03/04 00:06:35;;;;;;;14.90;8.93;;;1.70;99.90;;;;;;10309785;28;20233;-70
2023/03/04 00:11:35;;;;;;;18.07;9.67;;;1.70;99.90;;;;;;10325246;28;20217;-68
2023/03/04 00:16:36;;;;;;;15.03;9.23;;;1.60;99.90;;;;;;10332095;28;20576;-68
2023/03/04 00:21:37;;;;;;;14.37;8.67;;;1.60;99.90;;;;;;10308820;28;20214;-67
2023/03/04 00:26:37;;;;;;;13.97;8.73;;;1.50;99.90;;;;;;10318334;28;20240;-67
2023/03/04 00:31:38;;;;;;;12.97;8.33;;;1.40;99.90;;;;;;10321916;28;20225;-67
2023/03/04 00:36:38;;;;;;;14.23;8.30;;;1.40;99.90;;;;;;10325906;28;20813;-66
2023/03/04 00:41:42;;;;;;;13.60;8.73;;;1.30;99.90;;;;;;10313430;28;20306;-67
2023/03/04 00:46:42;;;;;;;15.30;9.13;;;1.30;99.90;;;;;;10330883;28;20241;-67
2023/03/04 00:51:43;;;;;;;16.43;9.60;;;1.20;99.90;;;;;;10321800;28;20237;-66
2023/03/04 00:56:44;;;;;;;19.13;9.80;;;1.20;99.90;;;;;;10318472;28;20234;-66
2023/03/04 01:01:44;;;;;;;13.90;8.10;;;1.20;99.90;;;;;;10320792;28;20219;-67
2023/03/04 01:06:48;;;;;;;13.00;8.20;;;1.10;99.90;;;;;;10313589;28;20309;-66
2023/03/04 01:11:51;;;;;;;14.07;9.03;;;1.10;99.90;;;;;;10321667;28;20222;-67
2023/03/04 01:16:52;;;;;;;15.90;9.03;;;1.10;99.90;;;;;;10321561;28;20318;-66
2023/03/04 01:21:52;;;;;;;16.90;8.90;;;1.00;99.90;;;;;;10321390;28;20217;-66
2023/03/04 01:26:53;;;;;;;20.70;11.73;;;1.00;99.90;;;;;;10318980;28;20222;-66
2023/03/04 01:31:54;;;;;;;15.17;9.30;;;1.00;99.90;;;;;;10325052;28;20301;-67
2023/03/04 01:36:54;;;;;;;16.63;8.90;;;0.90;99.90;;;;;;10321663;28;20222;-66
2023/03/04 01:41:55;;;;;;;14.07;8.40;;;0.90;99.90;;;;;;10319183;28;20210;-67
2023/03/04 01:46:56;;;;;;;14.73;8.83;;;0.90;99.90;;;;;;10327865;28;20214;-67
2023/03/04 01:51:56;;;;;;;14.33;8.87;;;0.90;99.90;;;;;;10328688;28;20755;-67
2023/03/04 01:56:59;;;;;;;16.33;9.07;;;0.90;99.90;;;;;;10315419;28;20300;-67
2023/03/04 02:01:59;;;;;;;15.37;9.10;;;0.90;99.90;;;;;;10319430;28;20272;-66
2023/03/04 02:07:04;;;;;;;14.13;8.63;;;0.90;99.90;;;;;;10313844;28;20250;-68
2023/03/04 02:12:05;;;;;;;17.53;9.40;;;0.90;99.90;;;;;;10322937;28;20280;-67
2023/03/04 02:17:12;;;;;;;16.90;8.97;;;0.90;99.90;;;;;;10321592;28;20295;-66
2023/03/04 02:22:13;;;;;;;17.63;9.57;;;0.80;99.90;;;;;;10320130;28;20214;-67
2023/03/04 02:27:13;;;;;;;16.70;9.33;;;0.80;99.90;;;;;;10320495;28;20214;-67
2023/03/04 02:32:15;;;;;;;17.70;9.23;;;0.80;99.90;;;;;;10318931;28;20709;-67
2023/03/04 02:37:18;;;;;;;20.47;10.23;;;0.90;99.90;;;;;;10321552;28;20702;-67
2023/03/04 02:42:19;;;;;;;15.33;9.53;;;1.10;99.90;;;;;;10316856;28;20328;-66
2023/03/04 02:47:19;;;;;;;18.73;10.13;;;1.40;99.90;;;;;;10319173;28;20712;-65
2023/03/04 02:52:22;;;;;;;16.77;9.40;;;1.50;99.90;;;;;;10317567;28;20236;-66
2023/03/04 02:57:22;;;;;;;18.57;9.70;;;1.60;99.90;;;;;;10325746;28;20318;-68
2023/03/04 03:02:26;;;;;;;19.10;10.63;;;1.70;99.90;;;;;;10312496;28;20214;-68
2023/03/04 03:07:27;;;;;;;14.77;9.43;;;1.70;99.90;;;;;;10318042;28;20231;-67
2023/03/04 03:12:27;;;;;;;16.00;10.20;;;1.90;99.90;;;;;;10323177;28;20333;-67
2023/03/04 03:17:28;;;;;;;16.77;10.27;;;1.90;99.90;;;;;;10318039;28;20222;-68
2023/03/04 03:22:28;;;;;;;17.00;10.87;;;2.00;99.90;;;;;;10317289;28;20578;-68
2023/03/04 03:27:29;;;;;;;17.67;10.33;;;1.90;99.90;;;;;;10310995;28;20218;-66
2023/03/04 03:32:30;;;;;;;17.63;11.20;;;1.80;99.90;;;;;;10323942;28;20699;-67
2023/03/04 03:37:30;;;;;;;16.73;10.17;;;1.70;99.90;;;;;;10324600;28;20229;-66
2023/03/04 03:42:31;;;;;;;15.90;9.80;;;1.60;99.90;;;;;;10326620;28;20612;-66
2023/03/04 03:47:31;;;;;;;18.97;10.97;;;1.50;99.90;;;;;;10318863;28;20248;-66
2023/03/04 03:52:32;;;;;;;20.57;11.60;;;1.50;99.90;;;;;;10305997;28;20233;-66
2023/03/04 03:57:32;;;;;;;19.10;10.70;;;1.50;99.90;;;;;;10323155;28;20698;-67
2023/03/04 04:02:33;;;;;;;18.87;10.67;;;1.60;99.90;;;;;;10322771;28;20217;-67
2023/03/04 04:07:34;;;;;;;20.47;11.27;;;1.60;99.90;;;;;;10324688;28;20229;-66
2023/03/04 04:12:35;;;;;;;19.13;10.87;;;1.60;99.90;;;;;;10315438;28;20222;-67
2023/03/04 04:17:35;;;;;;;18.67;10.60;;;1.60;99.90;;;;;;10309776;28;20225;-66
2023/03/04 04:22:36;;;;;;;18.67;10.83;;;1.70;99.90;;;;;;10312250;28;20570;-66
2023/03/04 04:27:36;;;;;;;21.43;11.97;;;1.80;99.90;;;;;;10308445;28;20253;-66
2023/03/04 04:32:40;;;;;;;20.43;12.13;;;1.90;99.90;;;;;;10319350;28;20283;-67
2023/03/04 04:37:41;;;;;;;21.97;13.13;;;2.00;99.90;;;;;;10326152;28;20222;-67
2023/03/04 04:42:41;;;;;;;20.73;12.50;;;2.00;99.90;;;;;;10325024;28;20217;-66
2023/03/04 04:47:42;;;;;;;23.37;13.77;;;2.10;99.90;;;;;;10323781;28;20230;-67
2023/03/04 04:52:42;;;;;;;27.37;14.23;;;2.10;99.90;;;;;;10316586;28;20233;-66
2023/03/04 04:57:43;;;;;;;29.93;15.90;;;2.10;99.90;;;;;;10315100;28;20261;-66
2023/03/04 05:02:43;;;;;;;28.77;16.23;;;2.10;99.90;;;;;;10328690;28;20210;-67
2023/03/04 05:07:44;;;;;;;35.73;18.03;;;2.10;99.90;;;;;;10330962;28;20222;-66
2023/03/04 05:12:44;;;;;;;39.80;19.70;;;2.10;99.90;;;;;;10326390;28;20230;-68
2023/03/04 05:17:45;;;;;;;43.37;21.20;;;2.20;99.90;;;;;;10325954;28;20226;-66
2023/03/04 05:22:46;;;;;;;44.10;21.27;;;2.30;99.90;;;;;;10322312;28;20830;-70
2023/03/04 05:27:46;;;;;;;45.13;21.87;;;2.30;99.90;;;;;;10314673;28;20548;-69
2023/03/04 05:32:47;;;;;;;42.43;22.10;;;2.30;99.90;;;;;;10327175;28;20809;-69
2023/03/04 05:37:47;;;;;;;48.30;24.13;;;2.30;99.90;;;;;;10326133;28;20226;-71
2023/03/04 05:42:48;;;;;;;50.43;24.93;;;2.30;99.90;;;;;;10335216;28;20206;-69
2023/03/04 05:47:48;;;;;;;48.83;24.23;;;2.40;99.90;;;;;;10319714;28;20319;-68
2023/03/04 05:52:49;;;;;;;48.47;23.70;;;2.40;99.90;;;;;;10328397;28;20249;-69
2023/03/04 05:57:50;;;;;;;49.83;25.70;;;2.40;99.90;;;;;;10320404;28;20223;-69
2023/03/04 06:02:51;;;;;;;45.73;23.50;;;2.50;99.90;;;;;;10317135;28;20214;-69
2023/03/04 06:07:51;;;;;;;46.43;23.17;;;2.50;99.90;;;;;;10317112;28;20289;-69
2023/03/04 06:12:52;;;;;;;62.73;28.57;;;2.50;99.90;;;;;;10322562;28;20264;-69
2023/03/04 06:17:56;;;;;;;67.17;31.13;;;2.50;99.90;;;;;;10321268;28;20236;-69
2023/03/04 06:22:56;;;;;;;57.77;28.87;;;2.60;99.90;;;;;;10314007;28;20641;-69
2023/03/04 06:27:57;;;;;;;56.37;28.60;;;2.60;99.90;;;;;;10316453;28;20215;-69
2023/03/04 06:32:58;;;;;;;61.60;29.10;;;2.70;99.90;;;;;;10317115;28;20649;-69
2023/03/04 06:37:58;;;;;;;58.27;27.60;;;2.70;99.90;;;;;;10323127;28;20231;-69
2023/03/04 06:42:59;;;;;;;54.37;26.60;;;2.70;99.90;;;;;;10320889;28;20671;-68
2023/03/04 06:47:59;;;;;;;50.97;24.80;;;2.80;99.90;;;;;;10318823;28;20223;-69
2023/03/04 06:53:00;;;;;;;55.63;25.13;;;2.80;99.90;;;;;;10315476;28;20226;-69
2023/03/04 06:58:00;;;;;;;51.30;24.93;;;2.80;99.90;;;;;;10317798;28;20226;-69
2023/03/04 07:03:01;;;;;;;44.20;23.37;;;2.90;99.90;;;;;;10315700;28;20218;-75
2023/03/04 07:08:02;;;;;;;45.17;24.93;;;2.90;99.90;;;;;;10324800;28;20217;-70
2023/03/04 07:13:02;;;;;;;46.77;24.10;;;3.00;99.90;;;;;;10329561;28;20218;-69
2023/03/04 07:18:03;;;;;;;43.17;22.23;;;3.00;99.90;;;;;;10317669;28;20221;-69
2023/03/04 07:23:05;;;;;;;44.10;22.63;;;3.00;99.90;;;;;;10325867;28;20727;-67
2023/03/04 07:28:05;;;;;;;44.53;23.63;;;3.10;99.90;;;;;;10326217;28;20226;-67
2023/03/04 07:33:09;;;;;;;43.67;22.77;;;3.20;99.90;;;;;;10325366;28;20218;-69
2023/03/04 07:38:10;;;;;;;39.20;20.87;;;3.40;99.90;;;;;;10326277;28;20236;-69
2023/03/04 07:43:11;;;;;;;44.03;22.53;;;3.40;99.90;;;;;;10332443;28;20223;-71
2023/03/04 07:48:12;;;;;;;42.53;22.07;;;3.50;99.90;;;;;;10324359;28;20639;-69
2023/03/04 07:53:12;;;;;;;39.23;22.20;;;3.60;99.90;;;;;;10325934;28;20222;-72
2023/03/04 07:58:13;;;;;;;43.53;22.97;;;3.60;99.90;;;;;;10323436;28;20300;-69
2023/03/04 08:03:14;;;;;;;42.13;22.93;;;3.70;99.90;;;;;;10315901;28;20221;-70
2023/03/04 08:08:14;;;;;;;42.33;23.20;;;3.80;99.90;;;;;;10310039;28;20850;-68
2023/03/04 08:13:15;;;;;;;46.07;24.03;;;4.00;99.90;;;;;;10325948;28;20277;-70
2023/03/04 08:18:15;;;;;;;46.77;24.10;;;4.00;99.90;;;;;;10325169;28;20238;-73
2023/03/04 08:23:16;;;;;;;42.63;22.33;;;4.10;99.90;;;;;;10323571;28;20937;-73
2023/03/04 08:28:17;;;;;;;41.87;22.47;;;4.30;99.90;;;;;;10322313;28;20224;-75
2023/03/04 08:33:17;;;;;;;40.70;23.67;;;4.40;99.90;;;;;;10324586;28;20785;-75
2023/03/04 08:38:19;;;;;;;41.70;23.70;;;4.50;99.90;;;;;;10329773;28;20649;-74
2023/03/04 08:43:20;;;;;;;42.93;23.07;;;4.50;99.90;;;;;;10318624;28;20259;-68
2023/03/04 08:48:22;;;;;;;44.17;23.67;;;4.60;99.90;;;;;;10323294;28;20229;-68
2023/03/04 08:53:23;;;;;;;42.03;23.00;;;4.60;99.90;;;;;;10320554;28;20232;-67
2023/03/04 08:58:23;;;;;;;44.10;24.43;;;4.70;99.90;;;;;;10320541;28;20226;-68
2023/03/04 09:03:24;;;;;;;41.13;23.33;;;4.60;99.90;;;;;;10325168;28;20218;-68
2023/03/04 09:08:25;;;;;;;42.87;23.33;;;4.70;99.90;;;;;;10318102;28;20731;-74
2023/03/04 09:13:29;;;;;;;39.57;23.07;;;4.80;99.90;;;;;;10319681;28;20227;-74
2023/03/04 09:18:32;;;;;;;40.33;23.13;;;4.90;99.90;;;;;;10325576;28;20237;-74
2023/03/04 09:23:33;;;;;;;43.03;23.40;;;5.00;99.90;;;;;;10329909;28;20218;-74
2023/03/04 09:28:34;;;;;;;40.07;22.87;;;5.20;99.90;;;;;;10324301;28;20247;-75
2023/03/04 09:33:34;;;;;;;35.87;20.07;;;5.50;99.90;;;;;;10327986;28;20231;-73
2023/03/04 09:38:37;;;;;;;35.30;22.60;;;5.80;99.90;;;;;;10335586;28;20225;-74
2023/03/04 09:43:38;;;;;;;38.67;22.53;;;6.00;99.90;;;;;;10316016;28;20218;-69
2023/03/04 09:48:47;;;;;;;35.20;21.77;;;6.10;99.90;;;;;;10317073;28;20237;-73
2023/03/04 09:54:08;;;;;;;32.73;19.50;;;6.30;99.90;;;;;;10315084;28;20231;-74
2023/03/04 09:59:18;;;;;;;28.97;18.93;;;6.50;99.90;;;;;;10322375;28;20312;-74
2023/03/04 10:04:46;;;;;;;28.53;17.80;;;6.70;99.90;;;;;;10319404;28;20226;-75
2023/03/04 10:09:50;;;;;;;28.53;17.53;;;6.90;99.90;;;;;;10308055;28;20254;-72
2023/03/04 10:14:57;;;;;;;25.33;16.77;;;7.00;99.90;;;;;;10324261;28;20240;-72
2023/03/04 10:20:06;;;;;;;33.13;20.87;;;7.10;99.90;;;;;;10320410;28;20660;-72
2023/03/04 10:25:26;;;;;;;31.33;19.87;;;7.30;99.90;;;;;;10306057;28;20301;-73
2023/03/04 10:30:41;;;;;;;36.67;20.73;;;7.40;99.90;;;;;;10320996;28;20293;-74
2023/03/04 10:35:50;;;;;;;33.80;21.40;;;7.60;99.90;;;;;;10324197;28;20213;-74
2023/03/04 10:40:50;;;;;;;38.63;23.07;;;7.90;99.90;;;;;;10322351;28;20237;-74
2023/03/04 10:45:56;;;;;;;36.73;21.43;;;8.00;99.90;;;;;;10319385;28;20220;-73
2023/03/04 10:51:19;;;;;;;35.03;22.80;;;8.00;99.90;;;;;;10323526;28;20226;-72
2023/03/04 10:56:31;;;;;;;36.20;21.53;;;8.00;99.90;;;;;;10322497;28;20253;-74
2023/03/04 11:01:31;;;;;;;31.40;21.27;;;8.00;99.90;;;;;;10323591;28;20265;-72
2023/03/04 11:06:32;;;;;;;32.47;21.60;;;8.10;99.90;;;;;;10310055;28;20247;-73
2023/03/04 11:11:43;;;;;;;30.10;19.13;;;8.30;99.90;;;;;;10319311;28;20237;-72
2023/03/04 11:16:56;;;;;;;36.33;22.03;;;8.20;99.90;;;;;;10340989;28;20704;-72
2023/03/04 11:21:58;;;;;;;35.93;22.37;;;8.30;99.90;;;;;;10312150;28;20221;-73
2023/03/04 11:27:14;;;;;;;33.50;20.33;;;8.20;99.90;;;;;;10326354;28;20236;-72
2023/03/04 11:32:26;;;;;;;27.53;17.20;;;8.10;99.90;;;;;;10322269;28;20217;-73
2023/03/04 11:38:03;;;;;;;28.67;18.63;;;8.00;99.90;;;;;;10314316;28;20237;-75
2023/03/04 11:43:06;;;;;;;27.93;16.37;;;8.00;99.90;;;;;;10323982;28;20225;-74
2023/03/04 11:48:34;;;;;;;29.27;17.77;;;7.80;99.90;;;;;;10324711;28;20696;-73
2023/03/04 11:53:44;;;;;;;31.17;17.50;;;7.70;99.90;;;;;;10331037;28;20696;-73
2023/03/04 11:58:50;;;;;;;29.73;17.07;;;7.70;99.90;;;;;;10323717;28;20344;-73
2023/03/04 12:04:03;;;;;;;29.03;17.17;;;7.70;99.90;;;;;;10337718;28;20223;-73
2023/03/04 12:09:29;;;;;;;31.60;16.93;;;7.70;99.90;;;;;;10329956;28;20310;-74
2023/03/04 12:14:47;;;;;;;29.43;17.47;;;7.80;99.90;;;;;;10324689;28;20235;-73
2023/03/04 12:20:26;;;;;;;31.30;17.07;;;7.80;99.90;;;;;;10322118;28;20237;-71
2023/03/04 12:25:56;;;;;;;23.87;15.23;;;7.60;99.90;;;;;;10312465;28;20228;-72
2023/03/04 12:31:19;;;;;;;26.17;14.77;;;7.70;99.90;;;;;;10341223;28;21107;-72
2023/03/04 12:36:47;;;;;;;25.40;15.80;;;7.70;99.90;;;;;;10325334;28;20253;-72
2023/03/04 12:41:54;;;;;;;28.43;15.47;;;7.50;99.90;;;;;;10322503;28;20230;-72
2023/03/04 12:47:18;;;;;;;26.10;14.60;;;7.50;99.90;;;;;;10326909;28;20275;-72
2023/03/04 12:52:41;;;;;;;25.80;14.30;;;7.50;99.90;;;;;;10329144;28;20568;-72
2023/03/04 12:57:42;;;;;;;26.43;13.93;;;7.60;99.90;;;;;;10328108;28;20265;-72
2023/03/04 13:03:09;;;;;;;31.37;15.27;;;7.60;99.90;;;;;;10328044;28;20252;-72
2023/03/04 13:08:19;;;;;;;25.90;14.27;;;7.70;99.90;;;;;;10320774;28;20229;-71
2023/03/04 13:13:40;;;;;;;23.27;13.80;;;7.80;99.90;;;;;;10323597;28;20262;-69
2023/03/04 13:18:40;;;;;;;23.13;13.53;;;7.80;99.90;;;;;;10316444;28;20654;-72
2023/03/04 13:23:41;;;;;;;22.33;13.33;;;7.80;99.90;;;;;;10326318;28;20221;-73
2023/03/04 13:28:42;;;;;;;23.23;12.67;;;7.90;99.90;;;;;;10326973;28;20224;-74
2023/03/04 13:33:56;;;;;;;20.73;11.63;;;8.10;99.90;;;;;;10333424;28;20217;-76
2023/03/04 13:39:14;;;;;;;26.07;11.70;;;8.20;99.90;;;;;;10326916;28;20693;-74
2023/03/04 13:44:41;;;;;;;17.73;10.97;;;8.60;99.90;;;;;;10319253;28;20314;-73
2023/03/04 13:49:41;;;;;;;20.53;10.33;;;8.90;99.90;;;;;;10336502;28;20244;-74
2023/03/04 13:54:42;;;;;;;18.43;9.97;;;9.00;99.90;;;;;;10311919;28;20267;-74
2023/03/04 14:00:11;;;;;;;24.10;12.60;;;9.10;99.90;;;;;;10311201;28;20277;-73
2023/03/04 14:05:11;;;;;;;23.63;14.83;;;9.10;99.90;;;;;;10320187;28;20261;-73
2023/03/04 14:10:13;;;;;;;23.10;14.70;;;8.90;99.90;;;;;;10314947;28;20289;-74
2023/03/04 14:15:17;;;;;;;30.10;14.47;;;8.70;99.90;;;;;;10320921;28;20241;-74
2023/03/04 14:20:27;;;;;;;25.33;14.70;;;8.80;99.90;;;;;;10322641;28;20218;-73
2023/03/04 14:25:34;;;;;;;26.20;13.67;;;8.70;99.90;;;;;;10326052;28;20225;-74
2023/03/04 14:30:35;;;;;;;19.97;11.37;;;8.70;99.90;;;;;;10325381;28;20701;-72
2023/03/04 14:35:37;;;;;;;21.90;13.37;;;8.60;99.90;;;;;;10323325;28;20222;-73
2023/03/04 14:40:44;;;;;;;23.97;12.40;;;8.50;99.90;;;;;;10318867;28;20708;-72
2023/03/04 14:45:49;;;;;;;19.43;10.87;;;8.30;99.90;;;;;;10321884;28;20221;-73
2023/03/04 14:50:51;;;;;;;17.87;10.20;;;8.20;99.90;;;;;;10322738;28;20224;-72
2023/03/04 14:56:03;;;;;;;15.63;9.97;;;8.20;99.90;;;;;;10320434;28;20623;-72
2023/03/04 15:01:17;;;;;;;22.93;10.67;;;8.20;99.90;;;;;;10312353;28;20243;-75
2023/03/04 15:06:22;;;;;;;14.90;7.03;;;8.10;99.90;;;;;;10322769;28;20321;-75
2023/03/04 15:11:25;;;;;;;12.30;6.63;;;8.10;99.90;;;;;;10322358;28;20248;-74
2023/03/04 15:16:48;;;;;;;8.80;5.20;;;8.00;99.90;;;;;;10321809;28;20774;-74
2023/03/04 15:21:49;;;;;;;7.70;4.97;;;7.90;99.90;;;;;;10320820;28;20224;-74
2023/03/04 15:26:50;;;;;;;10.13;5.40;;;8.00;99.90;;;;;;10326787;28;20603;-74
2023/03/04 15:31:51;;;;;;;8.07;5.07;;;7.90;99.90;;;;;;10321791;28;20228;-75
2023/03/04 15:36:59;;;;;;;18.33;6.43;;;7.70;99.90;;;;;;10319829;28;20725;-77
2023/03/04 15:41:59;;;;;;;14.97;6.43;;;7.60;99.90;;;;;;10314112;28;20212;-78
2023/03/04 15:47:00;;;;;;;11.23;6.20;;;7.50;99.90;;;;;;10320268;28;20243;-74
2023/03/04 15:52:05;;;;;;;11.27;6.47;;;7.50;99.90;;;;;;10321872;28;20269;-77
2023/03/04 15:57:14;;;;;;;17.47;7.00;;;7.40;99.90;;;;;;10319210;28;20598;-74
2023/03/04 16:02:20;;;;;;;18.57;10.63;;;7.40;99.90;;;;;;10320719;28;20214;-77
2023/03/04 16:07:27;;;;;;;19.00;9.93;;;7.30;99.90;;;;;;10316473;28;20225;-75
2023/03/04 16:12:28;;;;;;;15.63;9.03;;;7.20;99.90;;;;;;10318702;28;20218;-75
2023/03/04 16:17:29;;;;;;;15.47;8.30;;;7.10;99.90;;;;;;10317537;28;20230;-75
2023/03/04 16:22:29;;;;;;;15.97;7.53;;;7.00;99.90;;;;;;10316895;28;20769;-75
2023/03/04 16:27:31;;;;;;;18.67;8.30;;;7.00;99.90;;;;;;10321984;28;20222;-75
2023/03/04 16:32:32;;;;;;;19.27;10.67;;;6.90;99.90;;;;;;10316641;28;20232;-74
2023/03/04 16:37:32;;;;;;;24.57;12.07;;;6.90;99.90;;;;;;10328538;28;20233;-75
2023/03/04 16:42:33;;;;;;;23.93;12.27;;;6.80;99.90;;;;;;10330138;28;20217;-74
2023/03/04 16:47:34;;;;;;;22.60;12.30;;;6.70;99.90;;;;;;10326268;28;20225;-72
2023/03/04 16:52:35;;;;;;;22.57;12.37;;;6.70;99.90;;;;;;10327497;28;20248;-73
2023/03/04 16:57:36;;;;;;;17.90;11.40;;;6.50;99.90;;;;;;10322117;28;20305;-73
2023/03/04 17:02:37;;;;;;;22.80;12.03;;;6.50;99.90;;;;;;10311043;28;20222;-74
2023/03/04 17:07:41;;;;;;;22.10;10.63;;;6.40;99.90;;;;;;10324463;28;20225;-75
2023/03/04 17:12:42;;;;;;;19.77;10.53;;;6.40;99.90;;;;;;10314672;28;20581;-75
2023/03/04 17:17:47;;;;;;;19.00;11.27;;;6.40;99.90;;;;;;10330720;28;20330;-77
2023/03/04 17:22:48;;;;;;;21.07;10.60;;;6.30;99.90;;;;;;10337891;28;20249;-73
2023/03/04 17:27:49;;;;;;;20.10;11.70;;;6.30;99.90;;;;;;10320900;28;20742;-73
2023/03/04 17:32:50;;;;;;;20.63;11.17;;;6.20;99.90;;;;;;10321704;28;20293;-74
2023/03/04 17:37:50;;;;;;;22.47;11.07;;;6.20;99.90;;;;;;10330185;28;20276;-73
2023/03/04 17:42:51;;;;;;;20.03;10.97;;;6.20;99.90;;;;;;10325460;28;20218;-72
2023/03/04 17:47:52;;;;;;;25.17;13.03;;;6.20;99.90;;;;;;10323204;28;20236;-73
2023/03/04 17:52:52;;;;;;;22.37;12.67;;;6.20;99.90;;;;;;10321917;28;20723;-73
2023/03/04 17:57:56;;;;;;;19.53;11.93;;;6.20;99.90;;;;;;10324709;28;20221;-74
2023/03/04 18:02:56;;;;;;;19.10;11.30;;;6.30;99.90;;;;;;10321482;28;20218;-73
2023/03/04 18:07:57;;;;;;;21.17;11.47;;;6.20;99.90;;;;;;10318732;28;20217;-74
2023/03/04 18:12:58;;;;;;;21.73;10.97;;;6.20;99.90;;;;;;10323179;28;20253;-72
2023/03/04 18:17:59;;;;;;;21.17;11.27;;;6.20;99.90;;;;;;10319352;28;20213;-71
2023/03/04 18:22:59;;;;;;;17.17;10.30;;;6.20;99.90;;;;;;10322453;28;20219;-72
2023/03/04 18:28:00;;;;;;;20.10;11.40;;;6.30;99.90;;;;;;10323236;28;20210;-72
2023/03/04 18:33:01;;;;;;;21.60;11.90;;;6.30;99.90;;;;;;10330467;28;20222;-72
2023/03/04 18:38:02;;;;;;;18.40;10.27;;;6.30;99.90;;;;;;10318493;28;20221;-72
2023/03/04 18:43:03;;;;;;;19.50;11.03;;;6.30;99.90;;;;;;10312423;28;20226;-72
2023/03/04 18:48:04;;;;;;;17.03;11.03;;;6.20;99.90;;;;;;10323904;28;20257;-73
2023/03/04 18:53:04;;;;;;;13.63;10.10;;;6.20;99.90;;;;;;10317399;28;20218;-73
2023/03/04 18:58:05;;;;;;;22.40;11.77;;;6.20;99.90;;;;;;10316677;28;20225;-72
2023/03/04 19:03:10;;;;;;;18.87;11.80;;;6.20;99.90;;;;;;10312057;28;20229;-73
2023/03/04 19:08:11;;;;;;;21.83;11.67;;;6.20;99.90;;;;;;10322062;28;20221;-73
2023/03/04 19:13:11;;;;;;;15.27;10.87;;;6.20;99.90;;;;;;10324394;28;20217;-73
2023/03/04 19:18:12;;;;;;;17.23;10.43;;;6.20;99.90;;;;;;10322850;28;20218;-72
2023/03/04 19:23:14;;;;;;;16.70;10.60;;;6.20;99.90;;;;;;10319603;28;20214;-72
2023/03/04 19:28:14;;;;;;;20.93;11.13;;;6.20;99.90;;;;;;10322968;28;20217;-72
2023/03/04 19:33:15;;;;;;;19.63;11.47;;;6.20;99.90;;;;;;10317273;28;20217;-73
2023/03/04 19:38:16;;;;;;;20.70;11.60;;;6.10;99.90;;;;;;10306441;28;20226;-72
2023/03/04 19:43:16;;;;;;;19.83;12.40;;;6.10;99.90;;;;;;10315440;28;20229;-72
2023/03/04 19:48:17;;;;;;;20.00;11.03;;;6.10;99.90;;;;;;10306888;28;20226;-72
2023/03/04 19:53:17;;;;;;;23.10;12.80;;;6.10;99.90;;;;;;10316875;28;20572;-74
2023/03/04 19:58:19;;;;;;;17.13;10.97;;;6.10;99.90;;;;;;10304065;28;20226;-73
2023/03/04 20:03:19;;;;;;;17.90;11.70;;;6.10;99.90;;;;;;10322212;28;20214;-73
2023/03/04 20:08:20;;;;;;;19.03;12.20;;;6.10;99.90;;;;;;10313743;28;20625;-71
2023/03/04 20:13:20;;;;;;;18.73;11.87;;;6.10;99.90;;;;;;10317359;28;20229;-72
2023/03/04 20:18:21;;;;;;;21.27;12.57;;;6.10;99.90;;;;;;10317206;28;20235;-72
2023/03/04 20:23:22;;;;;;;21.00;12.43;;;6.10;99.90;;;;;;10317343;28;20653;-72
2023/03/04 20:28:24;;;;;;;21.30;13.93;;;6.10;99.90;;;;;;10318961;28;20229;-74
2023/03/04 20:33:24;;;;;;;23.13;14.63;;;6.10;99.90;;;;;;10302666;28;20314;-72
2023/03/04 20:38:25;;;;;;;28.37;15.63;;;6.00;99.90;;;;;;10316688;28;20310;-73
2023/03/04 20:43:27;;;;;;;26.77;18.00;;;5.90;99.90;;;;;;10320825;28;20844;-73
2023/03/04 20:48:28;;;;;;;27.43;16.03;;;5.90;99.90;;;;;;10317345;28;21213;-73
2023/03/04 20:53:28;;;;;;;30.80;17.03;;;5.90;99.90;;;;;;10328382;28;20288;-72
2023/03/04 20:58:29;;;;;;;30.27;16.87;;;6.00;99.90;;;;;;10312114;28;20373;-74
2023/03/04 21:03:30;;;;;;;30.40;17.33;;;6.00;99.90;;;;;;10321115;28;20250;-73
2023/03/04 21:08:30;;;;;;;24.87;16.37;;;6.00;99.90;;;;;;10328898;28;20238;-73
2023/03/04 21:13:35;;;;;;;27.77;16.47;;;5.90;99.90;;;;;;10324361;28;20832;-73
2023/03/04 21:18:36;;;;;;;26.40;15.63;;;5.90;99.90;;;;;;10323659;28;20234;-72
2023/03/04 21:23:36;;;;;;;24.33;15.50;;;5.90;99.90;;;;;;10316352;28;20708;-73
2023/03/04 21:28:37;;;;;;;25.97;15.70;;;5.90;99.90;;;;;;10326159;28;20237;-72
2023/03/04 21:33:40;;;;;;;26.97;14.70;;;5.80;99.90;;;;;;10313134;28;20232;-72
2023/03/04 21:38:43;;;;;;;26.83;15.57;;;5.80;99.90;;;;;;10323198;28;20503;-72
2023/03/04 21:43:44;;;;;;;24.67;14.53;;;5.80;99.90;;;;;;10320284;28;20682;-72
2023/03/04 21:48:46;;;;;;;26.83;14.60;;;5.80;99.90;;;;;;10322449;28;20288;-72
2023/03/04 21:53:48;;;;;;;28.27;14.80;;;5.90;99.90;;;;;;10319510;28;20249;-74
2023/03/04 21:58:49;;;;;;;26.30;15.53;;;5.80;99.90;;;;;;10313096;28;20242;-71
2023/03/04 22:03:50;;;;;;;28.33;16.30;;;5.80;99.90;;;;;;10314202;28;20223;-73
2023/03/04 22:08:52;;;;;;;31.60;15.93;;;5.80;99.90;;;;;;10317827;28;20221;-73
2023/03/04 22:13:57;;;;;;;30.40;16.83;;;5.80;99.90;;;;;;10316954;28;20324;-73
2023/03/04 22:18:58;;;;;;;24.67;15.87;;;5.80;99.90;;;;;;10307163;28;20237;-70
2023/03/04 22:23:58;;;;;;;29.40;15.83;;;5.80;99.90;;;;;;10319985;28;20217;-72
2023/03/04 22:29:04;;;;;;;28.10;16.00;;;5.70;99.90;;;;;;10305795;28;20217;-72
2023/03/04 22:34:13;;;;;;;22.93;14.90;;;5.80;99.90;;;;;;10327260;28;20225;-71
2023/03/04 22:39:17;;;;;;;26.47;15.30;;;5.80;99.90;;;;;;10318255;28;20248;-70
2023/03/04 22:44:18;;;;;;;29.33;16.37;;;5.70;99.90;;;;;;10325815;28;20309;-71
2023/03/04 22:49:19;;;;;;;26.07;16.23;;;5.70;99.90;;;;;;10309360;28;20229;-70
2023/03/04 22:54:20;;;;;;;24.77;15.57;;;5.70;99.90;;;;;;10310054;28;20252;-70
2023/03/04 22:59:20;;;;;;;28.63;15.43;;;5.70;99.90;;;;;;10317705;28;20229;-72
2023/03/04 23:04:22;;;;;;;26.27;15.47;;;5.70;99.90;;;;;;10316627;28;20240;-71
2023/03/04 23:09:22;;;;;;;25.57;14.70;;;5.70;99.90;;;;;;10311679;28;20230;-71
2023/03/04 23:14:23;;;;;;;25.40;15.53;;;5.70;99.90;;;;;;10318232;28;20297;-70
2023/03/04 23:19:23;;;;;;;27.87;15.07;;;5.60;99.90;;;;;;10320844;28;20237;-72
2023/03/04 23:24:25;;;;;;;25.13;15.17;;;5.60;99.90;;;;;;10314427;28;20587;-71
2023/03/04 23:29:25;;;;;;;29.73;16.37;;;5.60;99.90;;;;;;10315316;28;20252;-70
2023/03/04 23:34:26;;;;;;;29.83;16.67;;;5.60;99.90;;;;;;10309506;28;20295;-70
2023/03/04 23:39:27;;;;;;;28.67;15.47;;;5.60;99.90;;;;;;10319513;28;20619;-71
2023/03/04 23:44:27;;;;;;;29.63;16.57;;;5.60;99.90;;;;;;10315068;28;20598;-71
2023/03/04 23:49:31;;;;;;;27.23;15.90;;;5.50;99.90;;;;;;10302322;28;20249;-70
2023/03/04 23:54:31;;;;;;;32.20;16.83;;;5.60;99.90;;;;;;10314016;28;20725;-72
2023/03/04 23:59:32;;;;;;;32.03;16.70;;;5.50;99.90;;;;;;10308448;28;20226;-72
